Flight Track Log - Related Links

Times and Time Zones

All times are in EDT time to prevent confusion due to time zone crossing. See the TC-JFH flight status page for this flight to view local times or setup timezone preferences in your user account.

Time Position Orientation Groundspeed Altitude Reporting Facility
EDT Latitude Longitude Course Direction KTS MPH feet Rate Location/Type
Fri 02:26:15 PM 47.9749 16.8598 125° Southeast  Level Estimated
Fri 02:27:15 PM 47.9145 16.9883 125° Southeast  Level Estimated
Fri 02:28:15 PM 47.8540 17.1164 125° Southeast  Level Estimated
Fri 02:29:15 PM 47.7933 17.2442 125° Southeast  Level Estimated
Fri 02:30:15 PM 47.7324 17.3718 125° Southeast  Level Estimated
Fri 02:31:15 PM 47.6715 17.4990 125° Southeast  Level Estimated
Fri 02:32:15 PM 47.6104 17.6260 126° Southeast  Level Estimated
Fri 02:33:15 PM 47.5491 17.7526 126° Southeast  Level Estimated
Fri 02:34:15 PM 47.4877 17.8790 126° Southeast  Level Estimated
Fri 02:35:15 PM 47.4262 18.0050 126° Southeast  Level Estimated
Fri 02:36:15 PM 47.3645 18.1308 126° Southeast  Level Estimated
Fri 02:37:15 PM 47.3027 18.2563 126° Southeast  Level Estimated
Fri 02:38:15 PM 47.2408 18.3815 126° Southeast  Level Estimated
Fri 02:39:15 PM 47.1787 18.5063 126° Southeast  Level Estimated
Fri 02:40:15 PM 47.1165 18.6309 126° Southeast  Level Estimated
Fri 02:41:15 PM 47.0541 18.7552 126° Southeast  Level Estimated
Fri 02:42:15 PM 46.9917 18.8792 127° Southeast  Level Estimated
Fri 02:43:15 PM 46.9291 19.0030 127° Southeast  Level Estimated
Fri 02:44:15 PM 46.8663 19.1264 127° Southeast  Level Estimated
Fri 02:45:15 PM 46.8034 19.2495 127° Southeast  Level Estimated
Fri 02:46:15 PM 46.7404 19.3724 127° Southeast  Level Estimated
Fri 02:47:15 PM 46.6773 19.4950 127° Southeast  Level Estimated
Fri 02:48:15 PM 46.6140 19.6172 127° Southeast  Level Estimated
Fri 02:49:15 PM 46.5506 19.7392 127° Southeast  Level Estimated
Fri 02:50:15 PM 46.4871 19.8610 127° Southeast  Level Estimated
Fri 02:51:15 PM 46.4234 19.9824 127° Southeast  Level Estimated
Fri 02:52:15 PM 46.3596 20.1035 127° Southeast  Level Estimated
Fri 02:53:15 PM 46.2957 20.2244 127° Southeast  Level Estimated
Fri 02:54:15 PM 46.2317 20.3450 128° Southeast  Level Estimated
Fri 02:55:15 PM 46.1675 20.4653 128° Southeast  Level Estimated
Fri 02:56:15 PM 46.1032 20.5853 128° Southeast  Level Estimated
Fri 02:57:15 PM 46.0388 20.7050 128° Southeast  Level Estimated
Fri 02:58:15 PM 45.9742 20.8245 128° Southeast  Level Estimated
Fri 02:59:15 PM 45.9095 20.9437 128° Southeast  Level Estimated
Fri 03:00:15 PM 45.8448 21.0626 128° Southeast  Level Estimated
Fri 03:01:15 PM 45.7798 21.1812 128° Southeast  Level Estimated
Fri 03:02:15 PM 45.7148 21.2995 128° Southeast  Level Estimated
Fri 03:03:15 PM 45.6496 21.4176 128° Southeast  Level Estimated
Fri 03:04:15 PM 45.5844 21.5354 128° Southeast  Level Estimated
Fri 03:05:15 PM 45.5190 21.6529 129° Southeast  Level Estimated
Fri 03:06:15 PM 45.4534 21.7702 129° Southeast  Level Estimated
Fri 03:07:15 PM 45.3878 21.8871 129° Southeast  Level Estimated
Fri 03:08:15 PM 45.3220 22.0039 129° Southeast  Level Estimated
Fri 03:09:15 PM 45.2561 22.1203 129° Southeast  Level Estimated
Fri 03:10:15 PM 45.1902 22.2365 129° Southeast  Level Estimated
Fri 03:11:15 PM 45.1240 22.3524 129° Southeast  Level Estimated
Fri 03:12:15 PM 45.0578 22.4680 129° Southeast  Level Estimated
Fri 03:13:15 PM 44.9915 22.5834 129° Southeast  Level Estimated
Fri 03:14:15 PM 44.9250 22.6985 129° Southeast  Level Estimated
Fri 03:15:15 PM 44.8584 22.8133 129° Southeast  Level Estimated
Fri 03:16:15 PM 44.7917 22.9278 129° Southeast  Level Estimated
Fri 03:17:15 PM 44.7249 23.0421 130° Southeast  Level Estimated
Fri 03:18:15 PM 44.6580 23.1562 130° Southeast  Level Estimated
Fri 03:19:15 PM 44.5909 23.2699 130° Southeast  Level Estimated
Fri 03:20:15 PM 44.5238 23.3834 130° Southeast  Level Estimated
Fri 03:21:15 PM 44.4565 23.4967 130° Southeast  Level Estimated
Fri 03:22:15 PM 44.3891 23.6097 130° Southeast  Level Estimated
Fri 03:23:15 PM 44.3217 23.7224 130° Southeast  Level Estimated
Fri 03:24:15 PM 44.2541 23.8349 130° Southeast  Level Estimated
Fri 03:25:15 PM 44.1864 23.9471 130° Southeast  Level Estimated
Fri 03:26:15 PM 44.1185 24.0590 130° Southeast  Level Estimated
Fri 03:27:15 PM 44.0506 24.1707 130° Southeast  Level Estimated
Fri 03:28:15 PM 43.9826 24.2822 130° Southeast  Level Estimated
Fri 03:29:15 PM 43.9145 24.3934 130° Southeast  Level Estimated
Fri 03:30:15 PM 43.8462 24.5043 131° Southeast  Level Estimated
Fri 03:31:15 PM 43.7778 24.6150 131° Southeast  Level Estimated
Fri 03:32:15 PM 43.7094 24.7254 131° Southeast  Level Estimated
Fri 03:33:15 PM 43.6408 24.8355 131° Southeast  Level Estimated
Fri 03:34:15 PM 43.5721 24.9455 131° Southeast  Level Estimated
Fri 03:35:15 PM 43.5033 25.0551 131° Southeast  Level Estimated
Fri 03:36:15 PM 43.4345 25.1646 131° Southeast  Level Estimated
Fri 03:37:15 PM 43.3655 25.2737 131° Southeast  Level Estimated
Fri 03:38:15 PM 43.2964 25.3826 131° Southeast  Level Estimated
Fri 03:39:15 PM 43.2272 25.4913 131° Southeast  Level Estimated
Fri 03:40:15 PM 43.1579 25.5997 131° Southeast  Level Estimated
Fri 03:41:15 PM 43.0885 25.7079 131° Southeast  Level Estimated
Fri 03:42:15 PM 43.0190 25.8158 131° Southeast  Level Estimated
Fri 03:43:15 PM 42.9494 25.9235 131° Southeast  Level Estimated
Fri 03:44:15 PM 42.8797 26.0310 132° Southeast  Level Estimated
Fri 03:45:15 PM 42.8099 26.1382 132° Southeast  Level Estimated
Fri 03:46:15 PM 42.7400 26.2451 132° Southeast  Level Estimated
Fri 03:47:15 PM 42.6700 26.3519 132° Southeast  Level Estimated
Fri 03:48:15 PM 42.5999 26.4583 132° Southeast  Level Estimated
Fri 03:49:15 PM 42.5297 26.5646 132° Southeast  Level Estimated
Fri 03:50:15 PM 42.4594 26.6706 132° Southeast  Level Estimated
Fri 03:51:15 PM 42.3890 26.7763 132° Southeast  Level Estimated
Fri 03:52:15 PM 42.3185 26.8819 132° Southeast  Level Estimated
Fri 03:53:15 PM 42.2479 26.9872 132° Southeast  Level Estimated
Fri 03:54:15 PM 42.1772 27.0922 132° Southeast  Level Estimated
Fri 03:55:15 PM 42.1065 27.1970 132° Southeast  Level Estimated
Fri 03:56:15 PM 42.0356 27.3016 132° Southeast  Level Estimated
Fri 03:57:15 PM 41.9646 27.4060 132° Southeast  Level Estimated
Fri 03:58:15 PM 41.8936 27.5101 133° Southeast  Level Estimated
Fri 03:59:15 PM 41.8224 27.6140 133° Southeast  Level Estimated
Fri 04:00:15 PM 41.7511 27.7176 133° Southeast  Level Estimated
Fri 04:01:15 PM 41.6798 27.8211 133° Southeast  Level Estimated
Fri 04:02:15 PM 41.6084 27.9243 133° Southeast  Level Estimated
Fri 04:03:15 PM 41.5368 28.0272 133° Southeast  Level Estimated
Fri 04:04:15 PM 41.4652 28.1300 133° Southeast  Level Estimated
Fri 04:05:15 PM 41.3935 28.2325 133° Southeast  Level Estimated
Fri 04:06:15 PM 41.3217 28.3348 133° Southeast  Level Estimated
Fri 04:07:15 PM 41.2498 28.4368 133° Southeast  Level Estimated
Fri 04:08:15 PM 41.1778 28.5387 133° Southeast  Level Estimated
Fri 04:09:15 PM 41.1058 28.6403 133° Southeast  Level Estimated
Fri 04:10:15 PM 41.0336 28.7417 133° Southeast  Level Estimated
Fri 04:11:15 PM 40.9613 28.8429 313° West  Level Estimated
Fri 04:12:15 PM 41.0336 28.7417 133° Southeast  Level Estimated
Fri 04:13:15 PM 40.9613 28.8429 313° West  Level Estimated
Fri 04:14:15 PM 41.0336 28.7417 133° Southeast  Level Estimated
Fri 04:15:15 PM 40.9613 28.8429 313° West  Level Estimated
Fri 04:16:15 PM 41.0336 28.7417 133° Southeast  Level Estimated
Fri 04:17:15 PM 40.9613 28.8429 313° West  Level Estimated
Fri 04:18:15 PM 41.0336 28.7417 133° Southeast  Level Estimated
Fri 04:19:15 PM 40.9613 28.8429 313° West  Level Estimated
Fri 04:20:15 PM 41.0336 28.7417 133° Southeast  Level Estimated
Fri 04:21:15 PM 40.9613 28.8429 313° West  Level Estimated
Fri 04:22:15 PM 41.0336 28.7417 133° Southeast  Level Estimated
Fri 04:23:15 PM 40.9613 28.8429 313° West  Level Estimated
Fri 04:24:15 PM 41.0336 28.7417 133° Southeast  Level Estimated
Fri 04:25:15 PM 40.9613 28.8429 313° West  Level Estimated
Fri 04:26:15 PM 41.0336 28.7417 313° West  Level Estimated

Login

Don't have an account? Register now (free) for customized features, flight alerts, and more!